createdAt,value
2023-09-23T00:01:07.728Z,8.50
2023-09-23T00:04:55.757Z,8.40
2023-09-23T00:08:43.669Z,8.50
2023-09-23T00:12:24.678Z,8.90
2023-09-23T00:16:12.344Z,9.50
2023-09-23T00:20:00.198Z,8.80
2023-09-23T00:23:48.188Z,8.70
2023-09-23T00:27:35.962Z,9.30
2023-09-23T00:31:24.814Z,9.20
2023-09-23T00:35:12.738Z,9.30
2023-09-23T00:39:00.357Z,9.60
2023-09-23T00:42:48.113Z,9.20
2023-09-23T00:46:36.025Z,9.80
2023-09-23T00:50:23.892Z,9.70
2023-09-23T00:54:11.823Z,8.90
2023-09-23T00:57:59.522Z,10.20
2023-09-23T01:01:47.323Z,9.90
2023-09-23T01:05:35.129Z,10.10
2023-09-23T01:09:22.771Z,10.90
2023-09-23T01:13:10.605Z,9.60
2023-09-23T01:16:56.918Z,11.10
2023-09-23T01:20:44.691Z,10.70
2023-09-23T01:24:32.438Z,11.90
2023-09-23T01:28:20.059Z,11.40
2023-09-23T01:32:08.109Z,11.40
2023-09-23T01:35:55.882Z,10.70
2023-09-23T01:39:43.641Z,11.60
2023-09-23T01:43:31.353Z,10.80
2023-09-23T01:47:09.542Z,10.60
2023-09-23T01:50:57.290Z,12.10
2023-09-23T01:54:44.931Z,11.60
2023-09-23T01:58:25.759Z,11.90
2023-09-23T02:02:13.457Z,11.40
2023-09-23T02:06:01.501Z,11.00
2023-09-23T02:09:49.355Z,10.60
2023-09-23T02:13:37.054Z,11.40
2023-09-23T02:17:24.971Z,10.90
2023-09-23T02:20:55.505Z,12.10
2023-09-23T02:24:43.208Z,12.30
2023-09-23T02:28:30.858Z,11.80
2023-09-23T02:32:18.547Z,12.00
2023-09-23T02:36:06.413Z,11.30
2023-09-23T02:39:54.221Z,12.40
2023-09-23T02:43:41.935Z,10.60
2023-09-23T02:47:29.772Z,11.60
2023-09-23T02:51:20.552Z,11.40
2023-09-23T02:58:35.413Z,12.30
2023-09-23T03:02:23.365Z,12.10
2023-09-23T03:06:17.213Z,11.20
2023-09-23T03:10:04.907Z,11.90
2023-09-23T03:13:52.131Z,12.40
2023-09-23T03:17:40.071Z,11.90
2023-09-23T03:21:27.947Z,12.10
2023-09-23T03:25:15.703Z,11.90
2023-09-23T03:29:03.522Z,11.90
2023-09-23T03:32:51.504Z,11.60
2023-09-23T03:36:39.557Z,14.10
2023-09-23T03:40:27.218Z,13.10
2023-09-23T03:44:14.887Z,12.00
2023-09-23T03:48:02.867Z,10.80
2023-09-23T03:51:53.179Z,11.30
2023-09-23T03:55:40.918Z,11.10
2023-09-23T03:59:28.622Z,10.40
2023-09-23T04:03:16.506Z,11.40
2023-09-23T04:07:04.432Z,12.20
2023-09-23T04:10:52.183Z,11.80
2023-09-23T04:14:40.034Z,11.50
2023-09-23T04:18:27.651Z,11.20
2023-09-23T04:22:15.203Z,12.10
2023-09-23T04:26:02.877Z,11.10
2023-09-23T04:29:50.502Z,12.10
2023-09-23T04:33:41.194Z,14.00
2023-09-23T04:37:29.108Z,11.30
2023-09-23T04:41:16.925Z,12.10
2023-09-23T04:45:04.325Z,12.10
2023-09-23T04:48:52.211Z,12.10
2023-09-23T04:52:39.861Z,13.20
2023-09-23T04:56:27.686Z,11.60
2023-09-23T05:00:15.431Z,11.70
2023-09-23T05:03:56.148Z,11.40
2023-09-23T05:07:44.002Z,12.80
2023-09-23T05:11:31.796Z,12.40
2023-09-23T05:15:19.517Z,12.70
2023-09-23T05:19:07.321Z,12.60
2023-09-23T05:22:55.358Z,14.20
2023-09-23T05:26:43.003Z,13.70
2023-09-23T05:30:33.468Z,13.60
2023-09-23T05:34:21.718Z,12.40
2023-09-23T05:38:09.598Z,13.00
2023-09-23T05:41:56.351Z,13.30
2023-09-23T05:45:45.409Z,12.70
2023-09-23T05:49:30.730Z,13.00
2023-09-23T05:53:12.161Z,13.20
2023-09-23T05:56:59.974Z,13.20
2023-09-23T06:00:47.802Z,12.70
2023-09-23T06:04:35.678Z,12.60
2023-09-23T06:08:23.540Z,24.30
2023-09-23T06:12:11.289Z,20.20
2023-09-23T06:16:01.931Z,14.80
2023-09-23T06:19:32.712Z,13.20
2023-09-23T06:23:09.727Z,12.50
2023-09-23T06:26:57.616Z,12.60
2023-09-23T06:30:25.245Z,11.90
2023-09-23T06:34:01.544Z,14.40
2023-09-23T06:37:49.439Z,12.80
2023-09-23T06:41:37.353Z,14.00
2023-09-23T06:45:19.218Z,14.50
2023-09-23T06:49:07.076Z,14.60
2023-09-23T06:52:37.120Z,12.40
2023-09-23T06:56:17.704Z,11.70
2023-09-23T06:59:44.072Z,14.10
2023-09-23T07:03:17.047Z,12.20
2023-09-23T07:06:54.834Z,11.30
2023-09-23T07:10:33.069Z,10.60
2023-09-23T07:14:09.870Z,11.60
2023-09-23T07:17:57.761Z,11.60
2023-09-23T07:21:25.537Z,13.50
2023-09-23T07:24:53.410Z,13.10
2023-09-23T07:28:23.100Z,12.10
2023-09-23T07:32:00.623Z,11.90
2023-09-23T07:35:28.507Z,13.00
2023-09-23T07:38:56.173Z,11.40
2023-09-23T07:42:09.428Z,12.60
2023-09-23T07:45:37.110Z,12.00
2023-09-23T07:49:24.776Z,11.20
2023-09-23T07:52:58.115Z,10.40
2023-09-23T07:56:27.972Z,10.30
2023-09-23T07:59:49.817Z,11.50
2023-09-23T08:03:30.265Z,10.50
2023-09-23T08:06:39.318Z,10.60
2023-09-23T08:10:06.994Z,10.00
2023-09-23T08:13:37.601Z,10.80
2023-09-23T08:17:25.668Z,9.90
2023-09-23T08:20:38.328Z,8.20
2023-09-23T08:23:37.542Z,9.50
2023-09-23T08:26:46.415Z,9.60
2023-09-23T08:30:06.022Z,9.10
2023-09-23T08:33:16.736Z,9.10
2023-09-23T08:36:24.481Z,9.90
2023-09-23T08:39:20.298Z,9.70
2023-09-23T08:42:46.863Z,9.70
2023-09-23T08:45:54.230Z,9.20
2023-09-23T08:49:04.757Z,8.20
2023-09-23T08:52:06.451Z,8.20
2023-09-23T08:58:02.852Z,8.10
2023-09-23T09:00:35.714Z,8.30
2023-09-23T09:03:46.104Z,8.70
2023-09-23T09:07:07.741Z,8.70
2023-09-23T09:10:15.697Z,9.40
2023-09-23T09:13:03.764Z,8.50
2023-09-23T09:15:51.387Z,8.70
2023-09-23T09:18:41.502Z,9.40
2023-09-23T09:21:32.796Z,8.60
2023-09-23T09:24:25.363Z,9.10
2023-09-23T09:27:03.239Z,8.30
2023-09-23T09:30:13.777Z,7.90
2023-09-23T09:33:19.243Z,7.90
2023-09-23T09:35:59.125Z,8.20
2023-09-23T09:38:35.390Z,7.80
2023-09-23T09:41:54.140Z,7.80
2023-09-23T09:44:42.514Z,8.90
2023-09-23T09:47:16.718Z,8.10
2023-09-23T09:50:17.527Z,8.60
2023-09-23T09:53:09.245Z,8.30
2023-09-23T09:55:45.336Z,9.00
2023-09-23T09:58:20.928Z,8.40
2023-09-23T10:01:10.264Z,8.50
2023-09-23T10:04:08.855Z,8.70
2023-09-23T10:06:58.907Z,8.80
2023-09-23T10:09:48.763Z,8.90
2023-09-23T10:12:35.858Z,8.00
2023-09-23T10:15:49.079Z,8.50
2023-09-23T10:18:22.009Z,7.60
2023-09-23T10:20:55.393Z,7.30
2023-09-23T10:23:23.026Z,7.30
2023-09-23T10:26:03.549Z,7.20
2023-09-23T10:28:34.921Z,7.10
2023-09-23T10:31:05.533Z,7.00
2023-09-23T10:33:53.152Z,6.60
2023-09-23T10:36:23.059Z,6.40
2023-09-23T10:38:52.860Z,5.90
2023-09-23T10:41:20.063Z,6.40
2023-09-23T10:43:56.529Z,5.60
2023-09-23T10:46:24.237Z,6.60
2023-09-23T10:48:51.242Z,6.30
2023-09-23T10:51:23.711Z,6.00
2023-09-23T10:53:58.947Z,6.20
2023-09-23T10:56:37.403Z,5.50
2023-09-23T10:59:24.683Z,6.50
2023-09-23T11:01:55.663Z,6.00
2023-09-23T11:04:24.064Z,6.10
2023-09-23T11:06:51.358Z,5.80
2023-09-23T11:09:21.786Z,6.00
2023-09-23T11:11:48.726Z,5.70
2023-09-23T11:14:19.811Z,5.50
2023-09-23T11:16:49.806Z,5.30
2023-09-23T11:19:26.933Z,5.80
2023-09-23T11:22:01.050Z,5.90
2023-09-23T11:24:38.151Z,5.80
2023-09-23T11:27:07.609Z,5.20
2023-09-23T11:29:39.790Z,5.90
2023-09-23T11:32:27.424Z,5.40
2023-09-23T11:35:00.899Z,5.70
2023-09-23T11:37:30.274Z,5.30
2023-09-23T11:40:04.006Z,5.80
2023-09-23T11:42:33.675Z,5.20
2023-09-23T11:45:12.989Z,5.70
2023-09-23T11:47:42.928Z,6.50
2023-09-23T11:50:39.880Z,6.20
2023-09-23T11:53:16.369Z,5.40
2023-09-23T11:55:52.566Z,6.50
2023-09-23T11:58:20.262Z,6.10
2023-09-23T12:00:50.875Z,6.50
2023-09-23T12:03:19.124Z,6.10
2023-09-23T12:05:53.430Z,6.40
2023-09-23T12:08:22.085Z,5.90
2023-09-23T12:10:51.851Z,5.70
2023-09-23T12:13:41.330Z,5.80
2023-09-23T12:18:58.794Z,7.00
2023-09-23T12:21:29.570Z,6.70
2023-09-23T12:23:59.639Z,6.30
2023-09-23T12:26:29.537Z,5.70
2023-09-23T12:29:18.900Z,5.60
2023-09-23T12:32:06.032Z,5.70
2023-09-23T12:34:35.916Z,6.10
2023-09-23T12:37:03.845Z,5.60
2023-09-23T12:39:33.470Z,5.70
2023-09-23T12:42:03.630Z,5.10
2023-09-23T12:44:31.314Z,5.50
2023-09-23T12:47:04.434Z,5.50
2023-09-23T12:49:40.406Z,5.90
2023-09-23T12:52:11.049Z,5.20
2023-09-23T12:54:40.849Z,5.60
2023-09-23T12:57:08.778Z,6.00
2023-09-23T12:59:36.269Z,5.60
2023-09-23T13:02:06.382Z,5.70
2023-09-23T13:04:42.635Z,6.00
2023-09-23T13:07:13.272Z,5.70
2023-09-23T13:09:40.420Z,5.60
2023-09-23T13:12:07.683Z,5.90
2023-09-23T13:14:54.699Z,6.20
2023-09-23T13:17:24.626Z,6.10
2023-09-23T13:19:57.046Z,5.50
2023-09-23T13:22:37.431Z,6.00
2023-09-23T13:25:15.639Z,5.60
2023-09-23T13:28:02.844Z,5.80
2023-09-23T13:30:40.743Z,5.50
2023-09-23T13:33:09.466Z,5.80
2023-09-23T13:35:49.720Z,9.20
2023-09-23T13:38:19.670Z,8.10
2023-09-23T13:40:56.646Z,6.10
2023-09-23T13:43:26.489Z,6.30
2023-09-23T13:45:56.597Z,6.20
2023-09-23T13:48:32.562Z,5.30
2023-09-23T13:51:04.815Z,5.60
2023-09-23T13:53:36.321Z,5.40
2023-09-23T13:56:06.107Z,6.20
2023-09-23T13:58:53.881Z,5.60
2023-09-23T14:01:26.365Z,6.00
2023-09-23T14:03:56.535Z,8.20
2023-09-23T14:06:26.466Z,6.40
2023-09-23T14:09:04.089Z,5.50
2023-09-23T14:11:39.757Z,5.80
2023-09-23T14:14:06.809Z,6.50
2023-09-23T14:16:36.820Z,6.30
2023-09-23T14:19:11.154Z,5.60
2023-09-23T14:21:44.117Z,5.90
2023-09-23T14:24:11.073Z,6.00
2023-09-23T14:26:38.478Z,6.00
2023-09-23T14:29:25.695Z,5.60
2023-09-23T14:31:55.246Z,5.80
2023-09-23T14:34:25.607Z,6.10
2023-09-23T14:36:54.117Z,5.30
2023-09-23T14:39:32.261Z,5.70
2023-09-23T14:42:07.948Z,5.70
2023-09-23T14:44:37.883Z,5.90
2023-09-23T14:47:19.405Z,5.70
2023-09-23T14:49:54.978Z,6.20
2023-09-23T14:52:25.233Z,5.90
2023-09-23T14:54:55.680Z,5.80
2023-09-23T14:57:22.713Z,6.20
2023-09-23T14:59:52.145Z,5.90
2023-09-23T15:02:24.852Z,5.90
2023-09-23T15:04:54.648Z,5.80
2023-09-23T15:07:34.907Z,5.90
2023-09-23T15:10:11.543Z,5.70
2023-09-23T15:15:17.313Z,5.50
2023-09-23T15:17:47.804Z,6.00
2023-09-23T15:20:26.411Z,5.70
2023-09-23T15:23:04.491Z,6.00
2023-09-23T15:25:37.029Z,6.00
2023-09-23T15:28:08.814Z,6.80
2023-09-23T15:30:42.737Z,6.40
2023-09-23T15:33:15.182Z,6.20
2023-09-23T15:36:29.570Z,5.60
2023-09-23T15:39:14.241Z,6.30
2023-09-23T15:41:53.011Z,6.00
2023-09-23T15:44:42.994Z,5.70
2023-09-23T15:47:26.574Z,6.20
2023-09-23T15:53:08.937Z,6.20
2023-09-23T15:56:07.170Z,7.10
2023-09-23T15:59:17.247Z,6.30
2023-09-23T16:04:48.054Z,5.80
2023-09-23T16:07:39.342Z,6.70
2023-09-23T16:10:37.098Z,6.10
2023-09-23T16:13:17.143Z,6.50
2023-09-23T16:16:17.974Z,7.00
2023-09-23T16:19:14.410Z,7.40
2023-09-23T16:22:06.041Z,6.90
2023-09-23T16:25:03.793Z,6.90
2023-09-23T16:31:03.748Z,6.40
2023-09-23T16:34:05.389Z,5.90
2023-09-23T16:36:55.787Z,6.90
2023-09-23T16:39:43.943Z,6.80
2023-09-23T16:42:33.679Z,6.50
2023-09-23T16:45:44.258Z,7.50
2023-09-23T16:48:40.681Z,7.00
2023-09-23T16:51:31.902Z,6.90
2023-09-23T16:54:43.520Z,6.70
2023-09-23T16:57:20.035Z,6.00
2023-09-23T17:00:08.636Z,6.90
2023-09-23T17:03:01.453Z,6.50
2023-09-23T17:06:01.911Z,7.00
2023-09-23T17:08:49.505Z,6.30
2023-09-23T17:12:16.591Z,7.10
2023-09-23T17:15:24.810Z,8.20
2023-09-23T17:18:25.945Z,7.70
2023-09-23T17:21:26.306Z,8.00
2023-09-23T17:24:25.490Z,7.80
2023-09-23T17:28:02.324Z,8.30
2023-09-23T17:30:52.866Z,7.20
2023-09-23T17:34:09.758Z,8.10
2023-09-23T17:37:20.553Z,8.00
2023-09-23T17:40:37.527Z,9.40
2023-09-23T17:43:47.065Z,9.60
2023-09-23T17:46:40.440Z,11.90
2023-09-23T17:50:01.496Z,14.40
2023-09-23T17:53:15.090Z,14.30
2023-09-23T17:56:26.541Z,12.80
2023-09-23T17:59:37.332Z,13.20
2023-09-23T18:02:48.114Z,10.00
2023-09-23T18:05:55.469Z,10.90
2023-09-23T18:09:23.307Z,8.10
2023-09-23T18:12:33.821Z,8.90
2023-09-23T18:15:27.000Z,9.10
2023-09-23T18:18:30.417Z,9.20
2023-09-23T18:21:53.977Z,10.10
2023-09-23T18:25:02.600Z,9.30
2023-09-23T18:28:16.422Z,8.70
2023-09-23T18:31:35.712Z,9.10
2023-09-23T18:34:46.476Z,8.70
2023-09-23T18:37:39.908Z,8.90
2023-09-23T18:41:10.255Z,8.60
2023-09-23T18:44:30.756Z,8.70
2023-09-23T18:47:47.341Z,8.50
2023-09-23T18:50:58.179Z,7.90
2023-09-23T18:54:34.713Z,7.70
2023-09-23T18:57:53.319Z,8.60
2023-09-23T19:01:23.966Z,8.80
2023-09-23T19:04:32.444Z,9.20
2023-09-23T19:07:42.735Z,8.30
2023-09-23T19:10:50.526Z,8.00
2023-09-23T19:14:27.779Z,8.10
2023-09-23T19:17:36.185Z,8.00
2023-09-23T19:20:51.327Z,8.30
2023-09-23T19:23:52.410Z,7.40
2023-09-23T19:27:11.898Z,7.70
2023-09-23T19:30:39.470Z,7.70
2023-09-23T19:34:02.952Z,8.20
2023-09-23T19:37:24.807Z,7.50
2023-09-23T19:40:38.642Z,7.50
2023-09-23T19:43:49.185Z,8.00
2023-09-23T19:47:29.207Z,7.70
2023-09-23T19:50:41.013Z,7.40
2023-09-23T19:53:46.995Z,8.30
2023-09-23T19:57:28.177Z,8.00
2023-09-23T20:00:27.809Z,7.80
2023-09-23T20:03:55.540Z,7.70
2023-09-23T20:07:28.473Z,7.10
2023-09-23T20:10:28.955Z,7.40
2023-09-23T20:13:25.357Z,7.20
2023-09-23T20:16:22.357Z,7.30
2023-09-23T20:19:35.272Z,7.80
2023-09-23T20:22:48.397Z,8.20
2023-09-23T20:26:21.177Z,8.40
2023-09-23T20:30:03.624Z,9.10
2023-09-23T20:33:31.035Z,8.70
2023-09-23T20:37:16.304Z,8.90
2023-09-23T20:40:40.844Z,10.20
2023-09-23T20:43:38.640Z,9.80
2023-09-23T20:47:15.457Z,10.40
2023-09-23T20:50:40.300Z,9.90
2023-09-23T20:53:48.356Z,8.90
2023-09-23T20:57:36.154Z,8.60
2023-09-23T21:00:48.188Z,9.00
2023-09-23T21:04:16.064Z,8.20
2023-09-23T21:07:53.765Z,8.60
2023-09-23T21:11:41.488Z,7.90
2023-09-23T21:15:02.656Z,9.00
2023-09-23T21:18:23.921Z,8.10
2023-09-23T21:21:44.590Z,8.30
2023-09-23T21:25:32.512Z,10.70
2023-09-23T21:29:19.204Z,7.70
2023-09-23T21:32:29.580Z,7.00
2023-09-23T21:35:59.415Z,7.10
2023-09-23T21:39:07.822Z,7.10
2023-09-23T21:42:45.605Z,7.00
2023-09-23T21:46:06.490Z,7.70
2023-09-23T21:49:34.054Z,7.40
2023-09-23T21:52:43.384Z,7.20
2023-09-23T21:55:44.881Z,6.80
2023-09-23T21:59:32.668Z,7.70
2023-09-23T22:03:03.321Z,5.40
2023-09-23T22:06:16.378Z,6.20
2023-09-23T22:09:28.578Z,5.70
2023-09-23T22:12:33.471Z,6.60
2023-09-23T22:16:06.138Z,7.00
2023-09-23T22:19:23.188Z,6.70
2023-09-23T22:22:33.995Z,6.90
2023-09-23T22:25:54.481Z,5.90
2023-09-23T22:29:24.612Z,6.80
2023-09-23T22:32:39.925Z,5.70
2023-09-23T22:35:58.148Z,5.60
2023-09-23T22:39:27.539Z,7.20
2023-09-23T22:42:51.276Z,7.10
2023-09-23T22:46:10.400Z,5.70
2023-09-23T22:49:41.088Z,5.90
2023-09-23T22:53:19.018Z,5.70
2023-09-23T22:56:46.754Z,5.20
2023-09-23T23:00:03.701Z,5.50
2023-09-23T23:03:41.537Z,4.80
2023-09-23T23:07:00.605Z,5.10
2023-09-23T23:10:01.524Z,5.40
2023-09-23T23:13:16.874Z,5.20
2023-09-23T23:17:10.442Z,4.70
2023-09-23T23:20:39.276Z,4.20
2023-09-23T23:24:05.993Z,3.80
2023-09-23T23:27:16.596Z,3.50
2023-09-23T23:30:50.550Z,4.00
2023-09-23T23:34:03.646Z,3.90
2023-09-23T23:37:22.430Z,3.70
2023-09-23T23:41:10.304Z,3.20
2023-09-23T23:44:40.343Z,4.10
2023-09-23T23:48:08.465Z,3.20
2023-09-23T23:51:48.458Z,3.40
2023-09-23T23:55:03.639Z,3.20
2023-09-23T23:58:51.264Z,2.90
